| time (UTC) | temp F | wind direction | speed MPH | gust MPH | rain 1hr in | rain 24hr in | rain mn in | humidity % | barometer mb |
| 20260508160512 | 67 | 286 | 7.0 | 11.0 | 0.00 | 0.00 | 0.00 | 44 | 1016.7 |
| 20260508160008 | 66 | 286 | 3.0 | 5.0 | 0.00 | 0.00 | 0.00 | 42 | 1016.8 |
| 20260508155505 | 67 | 288 | 3.0 | 3.0 | 0.00 | 0.00 | 0.00 | 44 | 1017.0 |
| 20260508155002 | 66 | 286 | 3.0 | 5.0 | 0.00 | 0.00 | 0.00 | 44 | 1017.1 |
| 20260508154500 | 66 | 292 | 2.0 | 3.0 | 0.00 | 0.00 | 0.00 | 45 | 1017.4 |
| 20260508153956 | 65 | 286 | 1.0 | 2.0 | 0.00 | 0.00 | 0.00 | 48 | 1017.3 |
| 20260508153453 | 65 | 286 | 6.0 | 7.0 | 0.00 | 0.00 | 0.00 | 44 | 1017.4 |
| 20260508152949 | 66 | 309 | 2.0 | 5.0 | 0.00 | 0.00 | 0.00 | 46 | 1017.1 |
| 20260508152446 | 65 | 28 | 1.0 | 1.0 | 0.00 | 0.00 | 0.00 | 46 | 1017.0 |
| 20260508151942 | 66 | 286 | 5.0 | 8.0 | 0.00 | 0.00 | 0.00 | 45 | 1017.4 |
| 20260508151439 | 65 | 288 | 0.0 | 1.0 | 0.00 | 0.00 | 0.00 | 44 | 1017.4 |
| 20260508150935 | 65 | 319 | 0.0 | 1.0 | 0.00 | 0.00 | 0.00 | 41 | 1017.3 |
| 20260508150432 | 64 | 301 | 3.0 | 3.0 | 0.00 | 0.00 | 0.00 | 47 | 1017.3 |
| 20260508145928 | 63 | 286 | 4.0 | 5.0 | 0.00 | 0.00 | 0.00 | 45 | 1017.4 |
| 20260508145425 | 63 | 10 | 5.0 | 7.0 | 0.00 | 0.00 | 0.00 | 45 | 1017.4 |
| 20260508144921 | 63 | 286 | 2.0 | 3.0 | 0.00 | 0.00 | 0.00 | 48 | 1017.7 |
| 20260508144419 | 63 | 305 | 3.0 | 3.0 | 0.00 | 0.00 | 0.00 | 47 | 1017.3 |
| 20260508143916 | 63 | 346 | 6.0 | 8.0 | 0.00 | 0.00 | 0.00 | 44 | 1017.4 |
| 20260508143414 | 62 | 320 | 1.0 | 1.0 | 0.00 | 0.00 | 0.00 | 53 | 1017.0 |
| 20260508142910 | 62 | 358 | 4.0 | 6.0 | 0.00 | 0.00 | 0.00 | 50 | 1017.4 |
| 20260508142408 | 62 | 17 | 0.0 | 1.0 | 0.00 | 0.00 | 0.00 | 53 | 1017.4 |
| 20260508141904 | 62 | 301 | 2.0 | 2.0 | 0.00 | 0.00 | 0.00 | 52 | 1017.1 |
| 20260508141400 | 60 | 323 | 1.0 | 2.0 | 0.00 | 0.00 | 0.00 | 52 | 1017.5 |
| 20260508140858 | 60 | 318 | 3.0 | 6.0 | 0.00 | 0.00 | 0.00 | 53 | 1017.4 |
| 20260508140355 | 61 | 288 | 3.0 | 5.0 | 0.00 | 0.00 | 0.00 | 53 | 1017.5 |
| 20260508135850 | 60 | 50 | 3.0 | 3.0 | 0.00 | 0.00 | 0.00 | 52 | 1017.4 |
| 20260508135347 | 60 | 40 | 2.0 | 2.0 | 0.00 | 0.00 | 0.00 | 55 | 1017.5 |
| 20260508134843 | 59 | 319 | 0.0 | 0.0 | 0.00 | 0.00 | 0.00 | 54 | 1017.5 |
| 20260508134340 | 59 | 286 | 3.0 | 5.0 | 0.00 | 0.00 | 0.00 | 53 | 1017.3 |
| 20260508133837 | 58 | 286 | 3.0 | 3.0 | 0.00 | 0.00 | 0.00 | 56 | 1017.5 |
| 20260508133335 | 59 | 288 | 4.0 | 6.0 | 0.00 | 0.00 | 0.00 | 54 | 1017.4 |
| 20260508132831 | 58 | 329 | 3.0 | 3.0 | 0.00 | 0.00 | 0.00 | 54 | 1017.5 |
| 20260508132329 | 58 | 26 | 2.0 | 2.0 | 0.00 | 0.00 | 0.00 | 58 | 1017.4 |
| 20260508131826 | 57 | 333 | 2.0 | 3.0 | 0.00 | 0.00 | 0.00 | 61 | 1017.6 |
| 20260508131321 | 57 | 30 | 0.0 | 0.0 | 0.00 | 0.00 | 0.00 | 63 | 1017.6 |
| 20260508130818 | 56 | 322 | 2.0 | 2.0 | 0.00 | 0.00 | 0.00 | 60 | 1017.5 |
| 20260508130315 | 56 | 48 | 1.0 | 1.0 | 0.00 | 0.00 | 0.00 | 64 | 1017.7 |
| 20260508125811 | 56 | 32 | 0.0 | 0.0 | 0.00 | 0.00 | 0.00 | 69 | 1017.7 |
| 20260508125308 | 54 | 50 | 1.0 | 1.0 | 0.00 | 0.00 | 0.00 | 68 | 1017.7 |
| 20260508124806 | 53 | 37 | 0.0 | 0.0 | 0.00 | 0.00 | 0.00 | 72 | 1017.8 |
| 20260508124303 | 53 | 44 | 0.0 | 1.0 | 0.00 | 0.00 | 0.00 | 72 | 1017.6 |
| 20260508123801 | 53 | 48 | 0.0 | 1.0 | 0.00 | 0.00 | 0.00 | 71 | 1017.7 |
| 20260508123259 | 53 | 37 | 0.0 | 1.0 | 0.00 | 0.00 | 0.00 | 72 | 1017.7 |
| 20260508122754 | 51 | 37 | 0.0 | 0.0 | 0.00 | 0.00 | 0.00 | 76 | 1017.7 |
| 20260508122252 | 50 | 39 | 0.0 | 0.0 | 0.00 | 0.00 | 0.00 | 76 | 1017.7 |
| 20260508121749 | 48 | 20 | 0.0 | 0.0 | 0.00 | 0.00 | 0.00 | 80 | 1017.8 |
| 20260508121248 | 48 | 49 | 0.0 | 0.0 | 0.00 | 0.00 | 0.00 | 80 | 1017.6 |
| 20260508120744 | 47 | 49 | 0.0 | 0.0 | 0.00 | 0.00 | 0.00 | 81 | 1017.7 |
| 20260508120243 | 48 | 37 | 0.0 | 0.0 | 0.00 | 0.00 | 0.00 | 82 | 1017.6 |
| 20260508115740 | 46 | 44 | 0.0 | 0.0 | 0.00 | 0.00 | 0.00 | 82 | 1017.6 |
| 20260508115237 | 46 | 36 | 0.0 | 0.0 | 0.00 | 0.00 | 0.00 | 85 | 1017.4 |
| 20260508114733 | 45 | 41 | 0.0 | 0.0 | 0.00 | 0.00 | 0.00 | 89 | 1017.4 |
| 20260508114230 | 43 | 36 | 0.0 | 0.0 | 0.00 | 0.00 | 0.00 | 90 | 1017.4 |
| 20260508113727 | 41 | 47 | 0.0 | 0.0 | 0.00 | 0.00 | 0.00 | 91 | 1017.4 |
| 20260508113226 | 41 | 49 | 0.0 | 1.0 | 0.00 | 0.00 | 0.00 | 91 | 1017.3 |
| 20260508112721 | 40 | 27 | 0.0 | 0.0 | 0.00 | 0.00 | 0.00 | 92 | 1017.4 |
| 20260508112218 | 39 | 27 | 0.0 | 0.0 | 0.00 | 0.00 | 0.00 | 92 | 1017.4 |
| 20260508111715 | 39 | 27 | 0.0 | 0.0 | 0.00 | 0.00 | 0.00 | 92 | 1017.3 |
| 20260508111212 | 37 | 22 | 0.0 | 0.0 | 0.00 | 0.00 | 0.00 | 92 | 1017.5 |
| 20260508110709 | 36 | 22 | 0.0 | 0.0 | 0.00 | 0.00 | 0.00 | 92 | 1017.4 |
| 20260508110206 | 36 | 18 | 0.0 | 0.0 | 0.00 | 0.00 | 0.00 | 92 | 1017.3 |
| 20260508105706 | 36 | 17 | 0.0 | 0.0 | 0.00 | 0.00 | 0.00 | 92 | 1017.3 |
| 20260508105203 | 36 | 17 | 0.0 | 0.0 | 0.00 | 0.00 | 0.00 | 92 | 1017.1 |
| 20260508104701 | 36 | 17 | 0.0 | 0.0 | 0.00 | 0.00 | 0.00 | 92 | 1017.4 |
| 20260508104157 | 35 | 12 | 0.0 | 0.0 | 0.00 | 0.00 | 0.00 | 92 | 1017.0 |
| 20260508103655 | 35 | 10 | 0.0 | 0.0 | 0.00 | 0.00 | 0.00 | 92 | 1017.1 |
| 20260508103152 | 35 | 10 | 0.0 | 0.0 | 0.00 | 0.00 | 0.00 | 92 | 1017.0 |
| 20260508102649 | 35 | 20 | 0.0 | 0.0 | 0.00 | 0.00 | 0.00 | 92 | 1016.8 |
| 20260508102147 | 34 | 18 | 0.0 | 0.0 | 0.00 | 0.00 | 0.00 | 92 | 1016.8 |
| 20260508101644 | 34 | 18 | 0.0 | 0.0 | 0.00 | 0.00 | 0.00 | 92 | 1016.7 |
| 20260508101141 | 35 | 18 | 0.0 | 0.0 | 0.00 | 0.00 | 0.00 | 92 | 1016.6 |
| 20260508100638 | 34 | 18 | 0.0 | 0.0 | 0.00 | 0.00 | 0.00 | 92 | 1016.7 |
| 20260508100137 | 35 | 15 | 0.0 | 0.0 | 0.00 | 0.00 | 0.00 | 92 | 1016.8 |
| 20260508095633 | 35 | 15 | 0.0 | 0.0 | 0.00 | 0.00 | 0.00 | 92 | 1016.6 |
| 20260508095130 | 36 | 14 | 0.0 | 0.0 | 0.00 | 0.00 | 0.00 | 92 | 1016.5 |
| 20260508094627 | 36 | 11 | 0.0 | 0.0 | 0.00 | 0.00 | 0.00 | 92 | 1016.7 |
| 20260508094124 | 36 | 10 | 0.0 | 0.0 | 0.00 | 0.00 | 0.00 | 92 | 1016.5 |
| 20260508093621 | 36 | 5 | 0.0 | 0.0 | 0.00 | 0.00 | 0.00 | 92 | 1016.6 |
| 20260508093119 | 35 | 13 | 0.0 | 0.0 | 0.00 | 0.00 | 0.00 | 92 | 1016.6 |
| 20260508092616 | 35 | 13 | 0.0 | 0.0 | 0.00 | 0.00 | 0.00 | 92 | 1016.8 |
| 20260508092114 | 36 | 12 | 0.0 | 0.0 | 0.00 | 0.00 | 0.00 | 92 | 1016.6 |
| 20260508091611 | 36 | 12 | 0.0 | 0.0 | 0.00 | 0.00 | 0.00 | 92 | 1016.5 |
| 20260508091108 | 36 | 11 | 0.0 | 0.0 | 0.00 | 0.00 | 0.00 | 92 | 1016.6 |
| 20260508090606 | 35 | 11 | 0.0 | 0.0 | 0.00 | 0.00 | 0.00 | 92 | 1016.6 |
| 20260508090103 | 36 | 11 | 0.0 | 0.0 | 0.00 | 0.00 | 0.00 | 92 | 1016.6 |
| 20260508085559 | 37 | 11 | 0.0 | 0.0 | 0.00 | 0.00 | 0.00 | 92 | 1016.7 |
| 20260508085056 | 36 | 2 | 0.0 | 0.0 | 0.00 | 0.00 | 0.00 | 92 | 1016.5 |
| 20260508084553 | 36 | 11 | 0.0 | 0.0 | 0.00 | 0.00 | 0.00 | 92 | 1016.5 |
| 20260508084050 | 35 | 11 | 0.0 | 0.0 | 0.00 | 0.00 | 0.00 | 92 | 1016.4 |
| 20260508083547 | 35 | 11 | 0.0 | 0.0 | 0.00 | 0.00 | 0.00 | 92 | 1016.5 |
| 20260508083044 | 36 | 11 | 0.0 | 0.0 | 0.00 | 0.00 | 0.00 | 92 | 1016.4 |
| 20260508082540 | 36 | 8 | 0.0 | 0.0 | 0.00 | 0.00 | 0.00 | 92 | 1016.3 |
| 20260508082037 | 36 | 10 | 0.0 | 0.0 | 0.00 | 0.00 | 0.00 | 92 | 1016.4 |
| 20260508081535 | 36 | 12 | 0.0 | 0.0 | 0.00 | 0.00 | 0.00 | 92 | 1016.4 |
| 20260508081030 | 36 | 11 | 0.0 | 0.0 | 0.00 | 0.00 | 0.00 | 92 | 1016.3 |
| 20260508080529 | 36 | 11 | 0.0 | 0.0 | 0.00 | 0.00 | 0.00 | 92 | 1016.4 |
| 20260508080026 | 37 | 11 | 0.0 | 0.0 | 0.00 | 0.00 | 0.00 | 92 | 1016.3 |
| 20260508075522 | 37 | 2 | 0.0 | 0.0 | 0.00 | 0.00 | 0.00 | 92 | 1016.5 |
| 20260508075020 | 37 | 11 | 0.0 | 0.0 | 0.00 | 0.00 | 0.00 | 92 | 1016.3 |
| 20260508074518 | 37 | 8 | 0.0 | 0.0 | 0.00 | 0.00 | 0.00 | 92 | 1016.2 |
| 20260508074014 | 37 | 18 | 0.0 | 0.0 | 0.00 | 0.00 | 0.00 | 92 | 1016.5 |
| 20260508073511 | 37 | 18 | 0.0 | 0.0 | 0.00 | 0.00 | 0.00 | 92 | 1016.4 |
| 20260508073009 | 37 | 18 | 0.0 | 0.0 | 0.00 | 0.00 | 0.00 | 92 | 1016.3 |
| 20260508072504 | 37 | 18 | 0.0 | 0.0 | 0.00 | 0.00 | 0.00 | 92 | 1016.1 |
| 20260508072002 | 37 | 18 | 0.0 | 0.0 | 0.00 | 0.00 | 0.00 | 92 | 1016.5 |
| 20260508071500 | 37 | 18 | 0.0 | 0.0 | 0.00 | 0.00 | 0.00 | 92 | 1016.5 |
| 20260508070957 | 37 | 18 | 0.0 | 0.0 | 0.00 | 0.00 | 0.00 | 91 | 1016.5 |
| 20260508070455 | 38 | 20 | 0.0 | 0.0 | 0.00 | 0.00 | 0.00 | 91 | 1016.4 |
| 20260508065953 | 38 | 19 | 0.0 | 0.0 | 0.00 | 0.00 | 0.00 | 91 | 1016.3 |
| 20260508065450 | 38 | 35 | 0.0 | 0.0 | 0.00 | 0.00 | 0.00 | 91 | 1016.3 |
| 20260508064948 | 38 | 34 | 0.0 | 0.0 | 0.00 | 0.00 | 0.00 | 91 | 1016.2 |
| 20260508064445 | 37 | 34 | 0.0 | 0.0 | 0.00 | 0.00 | 0.00 | 91 | 1016.3 |
| 20260508063943 | 37 | 34 | 0.0 | 0.0 | 0.00 | 0.00 | 0.00 | 91 | 1016.3 |
| 20260508063440 | 38 | 34 | 0.0 | 0.0 | 0.00 | 0.00 | 0.00 | 91 | 1016.4 |
| 20260508062938 | 38 | 34 | 0.0 | 0.0 | 0.00 | 0.00 | 0.00 | 91 | 1016.4 |
| 20260508062435 | 37 | 35 | 0.0 | 0.0 | 0.00 | 0.00 | 0.00 | 90 | 1016.5 |
| 20260508061932 | 38 | 35 | 0.0 | 0.0 | 0.00 | 0.00 | 0.00 | 90 | 1016.7 |
| 20260508061430 | 39 | 35 | 0.0 | 0.0 | 0.00 | 0.00 | 0.00 | 91 | 1016.4 |
| 20260508060925 | 39 | 18 | 0.0 | 0.0 | 0.00 | 0.00 | 0.00 | 90 | 1016.6 |
| 20260508060424 | 39 | 17 | 0.0 | 0.0 | 0.00 | 0.00 | 0.00 | 90 | 1016.6 |
| 20260508055919 | 39 | 12 | 0.0 | 0.0 | 0.00 | 0.00 | 0.00 | 90 | 1016.7 |
| 20260508055416 | 39 | 14 | 0.0 | 0.0 | 0.00 | 0.00 | 0.00 | 90 | 1016.4 |
| 20260508054912 | 39 | 18 | 0.0 | 0.0 | 0.00 | 0.00 | 0.00 | 90 | 1016.5 |
| 20260508054410 | 38 | 21 | 0.0 | 0.0 | 0.00 | 0.00 | 0.00 | 89 | 1016.4 |
| 20260508053907 | 39 | 21 | 0.0 | 0.0 | 0.00 | 0.00 | 0.00 | 90 | 1016.5 |
| 20260508053404 | 39 | 21 | 0.0 | 0.0 | 0.00 | 0.00 | 0.00 | 89 | 1016.5 |
| 20260508052901 | 40 | 22 | 0.0 | 0.0 | 0.00 | 0.00 | 0.00 | 89 | 1016.6 |
| 20260508052359 | 40 | 11 | 0.0 | 0.0 | 0.00 | 0.00 | 0.00 | 89 | 1016.4 |
| 20260508051855 | 40 | 11 | 0.0 | 0.0 | 0.00 | 0.00 | 0.00 | 89 | 1016.5 |
| 20260508051350 | 40 | 14 | 0.0 | 0.0 | 0.00 | 0.00 | 0.00 | 89 | 1016.4 |
| 20260508050847 | 40 | 26 | 0.0 | 0.0 | 0.00 | 0.00 | 0.00 | 89 | 1016.3 |
| 20260508050344 | 40 | 26 | 0.0 | 0.0 | 0.00 | 0.00 | 0.00 | 89 | 1016.3 |
| 20260508045840 | 40 | 26 | 0.0 | 0.0 | 0.00 | 0.00 | 0.00 | 88 | 1016.3 |
| 20260508045338 | 40 | 26 | 0.0 | 0.0 | 0.00 | 0.00 | 0.00 | 88 | 1016.4 |
| 20260508044835 | 40 | 26 | 0.0 | 0.0 | 0.00 | 0.00 | 0.00 | 88 | 1016.4 |
| 20260508044331 | 40 | 26 | 0.0 | 0.0 | 0.00 | 0.00 | 0.00 | 87 | 1016.3 |
| 20260508043827 | 41 | 26 | 0.0 | 0.0 | 0.00 | 0.00 | 0.00 | 87 | 1016.5 |
| 20260508043325 | 41 | 26 | 0.0 | 0.0 | 0.00 | 0.00 | 0.00 | 86 | 1016.3 |
| 20260508042821 | 41 | 26 | 0.0 | 0.0 | 0.00 | 0.00 | 0.00 | 86 | 1016.5 |
| 20260508042319 | 41 | 31 | 0.0 | 0.0 | 0.00 | 0.00 | 0.00 | 86 | 1016.5 |
| 20260508041816 | 42 | 30 | 0.0 | 0.0 | 0.00 | 0.00 | 0.00 | 86 | 1016.4 |
| 20260508041312 | 42 | 31 | 0.0 | 0.0 | 0.00 | 0.00 | 0.00 | 85 | 1016.6 |
| 20260508040809 | 42 | 1 | 0.0 | 0.0 | 0.00 | 0.00 | 0.00 | 84 | 1016.4 |
| 20260508040307 | 42 | 356 | 1.0 | 1.0 | 0.00 | 0.00 | 0.00 | 85 | 1016.4 |
| 20260508035803 | 42 | 11 | 0.0 | 0.0 | 0.00 | 0.00 | 0.00 | 85 | 1016.5 |
| 20260508035301 | 42 | 11 | 0.0 | 0.0 | 0.00 | 0.00 | 0.00 | 85 | 1016.5 |
| 20260508034757 | 42 | 11 | 0.0 | 0.0 | 0.00 | 0.00 | 0.00 | 85 | 1016.4 |
| 20260508034254 | 42 | 19 | 0.0 | 0.0 | 0.00 | 0.00 | 0.00 | 83 | 1016.5 |
| 20260508033751 | 43 | 19 | 0.0 | 0.0 | 0.00 | 0.00 | 0.00 | 82 | 1016.4 |
| 20260508033249 | 43 | 19 | 0.0 | 0.0 | 0.00 | 0.00 | 0.00 | 82 | 1016.4 |
| 20260508032747 | 43 | 3 | 0.0 | 0.0 | 0.00 | 0.00 | 0.00 | 82 | 1016.6 |
| 20260508032244 | 44 | 11 | 0.0 | 0.0 | 0.00 | 0.00 | 0.00 | 81 | 1016.4 |
| 20260508031741 | 44 | 2 | 0.0 | 0.0 | 0.00 | 0.00 | 0.00 | 81 | 1016.5 |
| 20260508031237 | 44 | 357 | 0.0 | 0.0 | 0.00 | 0.00 | 0.00 | 81 | 1016.6 |
| 20260508030733 | 44 | 349 | 0.0 | 0.0 | 0.00 | 0.00 | 0.00 | 80 | 1016.6 |
| 20260508030231 | 44 | 341 | 0.0 | 0.0 | 0.00 | 0.00 | 0.00 | 79 | 1016.3 |
| 20260508025727 | 44 | 351 | 0.0 | 0.0 | 0.00 | 0.00 | 0.00 | 78 | 1016.4 |
| 20260508025225 | 45 | 351 | 0.0 | 0.0 | 0.00 | 0.00 | 0.00 | 78 | 1016.3 |
| 20260508024720 | 45 | 357 | 0.0 | 0.0 | 0.00 | 0.00 | 0.00 | 77 | 1016.4 |
| 20260508024218 | 45 | 359 | 0.0 | 0.0 | 0.00 | 0.00 | 0.00 | 77 | 1016.4 |
| 20260508023714 | 45 | 359 | 0.0 | 0.0 | 0.00 | 0.00 | 0.00 | 76 | 1016.5 |
| 20260508023212 | 46 | 358 | 0.0 | 0.0 | 0.00 | 0.00 | 0.00 | 76 | 1016.4 |
| 20260508022707 | 46 | 358 | 0.0 | 0.0 | 0.00 | 0.00 | 0.00 | 74 | 1016.3 |
| 20260508022204 | 46 | 357 | 0.0 | 0.0 | 0.00 | 0.00 | 0.00 | 75 | 1016.2 |
| 20260508021701 | 46 | 2 | 0.0 | 0.0 | 0.00 | 0.00 | 0.00 | 74 | 1016.0 |
| 20260508021156 | 47 | 357 | 0.0 | 0.0 | 0.00 | 0.00 | 0.00 | 72 | 1016.2 |
| 20260508020654 | 47 | 5 | 0.0 | 0.0 | 0.00 | 0.00 | 0.00 | 72 | 1016.1 |
| 20260508020151 | 47 | 12 | 0.0 | 0.0 | 0.00 | 0.00 | 0.00 | 71 | 1016.0 |
| 20260508015648 | 48 | 10 | 0.0 | 0.0 | 0.00 | 0.00 | 0.00 | 69 | 1015.7 |
| 20260508015146 | 48 | 9 | 0.0 | 0.0 | 0.00 | 0.00 | 0.00 | 68 | 1015.8 |
| 20260508014642 | 48 | 10 | 0.0 | 0.0 | 0.00 | 0.00 | 0.00 | 67 | 1015.8 |
| 20260508014138 | 49 | 10 | 1.0 | 1.0 | 0.00 | 0.00 | 0.00 | 66 | 1015.7 |
| 20260508013634 | 49 | 10 | 0.0 | 0.0 | 0.00 | 0.00 | 0.00 | 64 | 1015.9 |
| 20260508013131 | 50 | 342 | 0.0 | 1.0 | 0.00 | 0.00 | 0.00 | 63 | 1015.6 |
| 20260508012629 | 50 | 337 | 1.0 | 1.0 | 0.00 | 0.00 | 0.00 | 61 | 1015.3 |
| 20260508012126 | 51 | 356 | 0.0 | 0.0 | 0.00 | 0.00 | 0.00 | 60 | 1015.4 |
| 20260508011624 | 51 | 358 | 0.0 | 0.0 | 0.00 | 0.00 | 0.00 | 58 | 1015.1 |
| 20260508011121 | 52 | 345 | 0.0 | 1.0 | 0.00 | 0.00 | 0.00 | 56 | 1015.1 |
| 20260508010618 | 52 | 351 | 1.0 | 1.0 | 0.00 | 0.00 | 0.00 | 55 | 1015.1 |
| 20260508010116 | 53 | 19 | 0.0 | 0.0 | 0.00 | 0.00 | 0.00 | 55 | 1015.2 |
| 20260508005612 | 53 | 20 | 0.0 | 0.0 | 0.00 | 0.00 | 0.00 | 54 | 1015.2 |
| 20260508005109 | 54 | 21 | 0.0 | 0.0 | 0.00 | 0.00 | 0.00 | 51 | 1014.9 |
| 20260508004605 | 54 | 21 | 0.0 | 0.0 | 0.00 | 0.00 | 0.00 | 50 | 1014.9 |
| 20260508004102 | 55 | 347 | 0.0 | 0.0 | 0.00 | 0.00 | 0.00 | 47 | 1014.9 |
| 20260508003558 | 56 | 325 | 0.0 | 0.0 | 0.00 | 0.00 | 0.00 | 46 | 1014.8 |
| 20260508003056 | 56 | 330 | 1.0 | 1.0 | 0.00 | 0.00 | 0.00 | 44 | 1015.1 |
| 20260508002552 | 57 | 345 | 0.0 | 0.0 | 0.00 | 0.00 | 0.00 | 42 | 1014.9 |
| 20260508002049 | 57 | 7 | 0.0 | 0.0 | 0.00 | 0.00 | 0.00 | 41 | 1015.0 |
| 20260508001545 | 57 | 7 | 0.0 | 0.0 | 0.00 | 0.00 | 0.00 | 42 | 1014.5 |
| 20260508001041 | 58 | 36 | 1.0 | 2.0 | 0.00 | 0.00 | 0.00 | 41 | 1014.6 |
| 20260508000537 | 58 | 315 | 0.0 | 1.0 | 0.00 | 0.00 | 0.00 | 40 | 1014.6 |
| 20260508000035 | 58 | 38 | 1.0 | 1.0 | 0.00 | 0.00 | 0.00 | 39 | 1014.6 |
| 20260507235531 | 59 | 28 | 0.0 | 1.0 | 0.00 | 0.00 | 0.00 | 37 | 1014.7 |
| 20260507235029 | 60 | 23 | 1.0 | 2.0 | 0.00 | 0.00 | 0.00 | 37 | 1014.4 |
| 20260507234525 | 60 | 320 | 1.0 | 2.0 | 0.00 | 0.00 | 0.00 | 35 | 1014.5 |
| 20260507234021 | 60 | 9 | 5.0 | 7.0 | 0.00 | 0.00 | 0.00 | 35 | 1014.6 |
| 20260507233518 | 60 | 33 | 6.0 | 10.0 | 0.00 | 0.00 | 0.00 | 34 | 1014.5 |
| 20260507233017 | 60 | 14 | 3.0 | 3.0 | 0.00 | 0.00 | 0.00 | 33 | 1014.3 |
| 20260507232513 | 60 | 25 | 0.0 | 1.0 | 0.00 | 0.00 | 0.00 | 34 | 1014.3 |
| 20260507232010 | 60 | 292 | 4.0 | 6.0 | 0.00 | 0.00 | 0.00 | 33 | 1014.3 |
| 20260507231506 | 61 | 355 | 3.0 | 3.0 | 0.00 | 0.00 | 0.00 | 33 | 1014.2 |
| 20260507231004 | 62 | 357 | 2.0 | 3.0 | 0.00 | 0.00 | 0.00 | 30 | 1014.0 |
| 20260507230501 | 63 | 3 | 4.0 | 7.0 | 0.00 | 0.00 | 0.00 | 31 | 1014.2 |
| 20260507225955 | 63 | 349 | 2.0 | 3.0 | 0.00 | 0.00 | 0.00 | 33 | 1014.0 |
| 20260507225452 | 64 | 8 | 1.0 | 2.0 | 0.00 | 0.00 | 0.00 | 34 | 1014.2 |
| 20260507224948 | 63 | 23 | 1.0 | 1.0 | 0.00 | 0.00 | 0.00 | 35 | 1014.1 |
| 20260507224444 | 63 | 319 | 2.0 | 3.0 | 0.00 | 0.00 | 0.00 | 33 | 1014.1 |
| 20260507223941 | 64 | 27 | 1.0 | 2.0 | 0.00 | 0.00 | 0.00 | 33 | 1014.2 |
| 20260507223437 | 64 | 297 | 0.0 | 1.0 | 0.00 | 0.00 | 0.00 | 35 | 1014.2 |
| 20260507222934 | 64 | 318 | 3.0 | 3.0 | 0.00 | 0.00 | 0.00 | 32 | 1014.2 |
| 20260507222431 | 64 | 287 | 3.0 | 7.0 | 0.00 | 0.00 | 0.00 | 34 | 1014.1 |
| 20260507221928 | 64 | 336 | 2.0 | 3.0 | 0.00 | 0.00 | 0.00 | 34 | 1014.2 |
| 20260507221425 | 64 | 12 | 2.0 | 3.0 | 0.00 | 0.00 | 0.00 | 33 | 1014.0 |
| 20260507220921 | 64 | 345 | 1.0 | 2.0 | 0.00 | 0.00 | 0.00 | 33 | 1013.9 |
| 20260507220419 | 65 | 299 | 3.0 | 5.0 | 0.00 | 0.00 | 0.00 | 33 | 1014.0 |
| 20260507215915 | 64 | 315 | 3.0 | 5.0 | 0.00 | 0.00 | 0.00 | 35 | 1013.8 |
| 20260507215412 | 64 | 20 | 1.0 | 1.0 | 0.00 | 0.00 | 0.00 | 33 | 1013.7 |
| 20260507214909 | 65 | 286 | 4.0 | 6.0 | 0.00 | 0.00 | 0.00 | 35 | 1013.8 |
| 20260507214407 | 64 | 330 | 5.0 | 6.0 | 0.00 | 0.00 | 0.00 | 34 | 1013.6 |
| 20260507213902 | 65 | 8 | 7.0 | 8.0 | 0.00 | 0.00 | 0.00 | 33 | 1013.4 |
| 20260507213358 | 64 | 286 | 3.0 | 3.0 | 0.00 | 0.00 | 0.00 | 37 | 1013.3 |
| 20260507212856 | 65 | 354 | 1.0 | 2.0 | 0.00 | 0.00 | 0.00 | 35 | 1013.6 |
| 20260507212351 | 65 | 289 | 5.0 | 8.0 | 0.00 | 0.00 | 0.00 | 38 | 1013.4 |
| 20260507211848 | 65 | 358 | 2.0 | 3.0 | 0.00 | 0.00 | 0.00 | 37 | 1013.5 |
| 20260507211345 | 66 | 316 | 0.0 | 2.0 | 0.00 | 0.00 | 0.00 | 36 | 1013.5 |
| 20260507210842 | 66 | 32 | 3.0 | 3.0 | 0.00 | 0.00 | 0.00 | 35 | 1013.4 |
| 20260507210339 | 65 | 286 | 2.0 | 3.0 | 0.00 | 0.00 | 0.00 | 36 | 1013.6 |
| 20260507205835 | 65 | 286 | 7.0 | 10.0 | 0.00 | 0.00 | 0.00 | 36 | 1013.5 |
| 20260507205332 | 65 | 286 | 4.0 | 6.0 | 0.00 | 0.00 | 0.00 | 38 | 1013.4 |
| 20260507204828 | 64 | 286 | 2.0 | 2.0 | 0.00 | 0.00 | 0.00 | 38 | 1013.2 |
| 20260507204326 | 66 | 286 | 3.0 | 5.0 | 0.00 | 0.00 | 0.00 | 39 | 1013.3 |
| 20260507203823 | 66 | 353 | 5.0 | 7.0 | 0.00 | 0.00 | 0.00 | 37 | 1013.1 |
| 20260507203321 | 66 | 3 | 3.0 | 3.0 | 0.00 | 0.00 | 0.00 | 38 | 1013.6 |
| 20260507202817 | 66 | 2 | 2.0 | 5.0 | 0.00 | 0.00 | 0.00 | 41 | 1013.3 |
| 20260507202314 | 65 | 296 | 2.0 | 3.0 | 0.00 | 0.00 | 0.00 | 39 | 1013.5 |
| 20260507201809 | 66 | 286 | 3.0 | 5.0 | 0.00 | 0.00 | 0.00 | 39 | 1013.3 |
| 20260507201305 | 65 | 11 | 5.0 | 8.0 | 0.00 | 0.00 | 0.00 | 38 | 1013.1 |
| 20260507200802 | 65 | 289 | 3.0 | 3.0 | 0.00 | 0.00 | 0.00 | 42 | 1013.3 |
| 20260507200257 | 64 | 286 | 6.0 | 9.0 | 0.00 | 0.00 | 0.00 | 38 | 1013.5 |
| 20260507195754 | 65 | 342 | 5.0 | 7.0 | 0.00 | 0.00 | 0.00 | 40 | 1013.5 |
| 20260507195251 | 64 | 286 | 7.0 | 7.0 | 0.00 | 0.00 | 0.00 | 40 | 1013.5 |
| 20260507194748 | 64 | 290 | 5.0 | 7.0 | 0.00 | 0.00 | 0.00 | 39 | 1013.4 |
| 20260507194244 | 66 | 330 | 1.0 | 2.0 | 0.00 | 0.00 | 0.00 | 42 | 1013.5 |
| 20260507193741 | 66 | 286 | 5.0 | 7.0 | 0.00 | 0.00 | 0.00 | 45 | 1013.5 |
| 20260507193238 | 65 | 329 | 0.0 | 0.0 | 0.00 | 0.00 | 0.00 | 42 | 1013.4 |
| 20260507192734 | 65 | 13 | 3.0 | 5.0 | 0.00 | 0.00 | 0.00 | 40 | 1013.4 |
| 20260507192231 | 65 | 286 | 3.0 | 3.0 | 0.00 | 0.00 | 0.00 | 43 | 1013.5 |
| 20260507191727 | 65 | 286 | 8.0 | 10.0 | 0.00 | 0.00 | 0.00 | 43 | 1013.5 |
| 20260507191224 | 65 | 41 | 4.0 | 7.0 | 0.00 | 0.00 | 0.00 | 39 | 1013.6 |
| 20260507190721 | 64 | 297 | 2.0 | 5.0 | 0.00 | 0.00 | 0.00 | 43 | 1013.7 |
| 20260507190219 | 64 | 305 | 2.0 | 2.0 | 0.00 | 0.00 | 0.00 | 44 | 1013.7 |
| 20260507185718 | 64 | 345 | 2.0 | 2.0 | 0.00 | 0.00 | 0.00 | 43 | 1013.7 |
| 20260507185214 | 64 | 286 | 2.0 | 5.0 | 0.00 | 0.00 | 0.00 | 43 | 1013.9 |
| 20260507184712 | 64 | 326 | 4.0 | 7.0 | 0.00 | 0.00 | 0.00 | 41 | 1013.8 |
| 20260507184209 | 64 | 286 | 9.0 | 13.0 | 0.00 | 0.00 | 0.00 | 40 | 1014.1 |
| 20260507183706 | 65 | 292 | 4.0 | 6.0 | 0.00 | 0.00 | 0.00 | 41 | 1014.2 |
| 20260507183202 | 64 | 16 | 0.0 | 0.0 | 0.00 | 0.00 | 0.00 | 43 | 1013.9 |
| 20260507182700 | 65 | 286 | 3.0 | 3.0 | 0.00 | 0.00 | 0.00 | 44 | 1013.8 |
| 20260507182155 | 64 | 286 | 3.0 | 3.0 | 0.00 | 0.00 | 0.00 | 47 | 1014.3 |
| 20260507181652 | 64 | 45 | 1.0 | 1.0 | 0.00 | 0.00 | 0.00 | 44 | 1014.4 |
| 20260507181148 | 62 | 36 | 3.0 | 3.0 | 0.00 | 0.00 | 0.00 | 45 | 1014.2 |
| 20260507180645 | 62 | 286 | 6.0 | 8.0 | 0.00 | 0.00 | 0.00 | 46 | 1014.4 |
| 20260507180142 | 62 | 290 | 8.0 | 11.0 | 0.00 | 0.00 | 0.00 | 47 | 1014.0 |
| 20260507175637 | 62 | 286 | 7.0 | 8.0 | 0.00 | 0.00 | 0.00 | 44 | 1014.2 |
| 20260507175135 | 65 | 19 | 5.0 | 7.0 | 0.00 | 0.00 | 0.00 | 44 | 1014.2 |
| 20260507174632 | 63 | 335 | 2.0 | 2.0 | 0.00 | 0.00 | 0.00 | 46 | 1014.3 |
| 20260507174130 | 64 | 286 | 5.0 | 7.0 | 0.00 | 0.00 | 0.00 | 50 | 1014.3 |
| 20260507173627 | 63 | 4 | 3.0 | 5.0 | 0.00 | 0.00 | 0.00 | 44 | 1014.3 |
| 20260507173124 | 64 | 327 | 2.0 | 2.0 | 0.00 | 0.00 | 0.00 | 46 | 1014.6 |
| 20260507172620 | 62 | 331 | 2.0 | 5.0 | 0.00 | 0.00 | 0.00 | 50 | 1014.4 |
| 20260507172118 | 64 | 286 | 3.0 | 3.0 | 0.00 | 0.00 | 0.00 | 52 | 1014.8 |
| 20260507171612 | 62 | 292 | 4.0 | 5.0 | 0.00 | 0.00 | 0.00 | 51 | 1014.5 |
| 20260507171110 | 62 | 306 | 1.0 | 1.0 | 0.00 | 0.00 | 0.00 | 48 | 1014.5 |
| 20260507170607 | 62 | 29 | 1.0 | 2.0 | 0.00 | 0.00 | 0.00 | 55 | 1014.5 |
| 20260507170104 | 63 | 286 | 4.0 | 5.0 | 0.00 | 0.00 | 0.00 | 49 | 1014.8 |
| 20260507165559 | 62 | 8 | 3.0 | 5.0 | 0.00 | 0.00 | 0.00 | 49 | 1014.9 |
| 20260507165055 | 61 | 295 | 7.0 | 8.0 | 0.00 | 0.00 | 0.00 | 52 | 1014.9 |
| 20260507164552 | 60 | 330 | 1.0 | 1.0 | 0.00 | 0.00 | 0.00 | 55 | 1014.9 |
| 20260507164049 | 61 | 308 | 1.0 | 1.0 | 0.00 | 0.00 | 0.00 | 51 | 1015.0 |
| 20260507163547 | 60 | 18 | 2.0 | 3.0 | 0.00 | 0.00 | 0.00 | 53 | 1015.1 |
| 20260507163045 | 61 | 301 | 7.0 | 9.0 | 0.00 | 0.00 | 0.00 | 57 | 1015.0 |
| 20260507162544 | 62 | 292 | 6.0 | 9.0 | 0.00 | 0.00 | 0.00 | 52 | 1015.0 |
| 20260507162042 | 61 | 30 | 0.0 | 0.0 | 0.00 | 0.00 | 0.00 | 48 | 1014.7 |
| 20260507161539 | 61 | 286 | 5.0 | 8.0 | 0.00 | 0.00 | 0.00 | 51 | 1015.0 |
| 20260507161034 | 60 | 313 | 2.0 | 3.0 | 0.00 | 0.00 | 0.00 | 55 | 1015.2 |